Time;durP1;ratioP1;P1;durP2;ratioP2;P2;SDS_P1;SDS_P2;PMS_P1;PMS_P2;Temp;Humidity;BMP_temperature;BMP_pressure;BME280_temperature;BME280_humidity;BME280_pressure;Samples;Min_cycle;Max_cycle;Signal;HPM_P1;HPM_P2
2023/09/05 00:00:13;;;;;;;5.18;3.42;;;;;;;-148.88;100.00;-17125.47;4993209;28;20022;-75
2023/09/05 00:02:40;;;;;;;4.75;3.58;;;;;;;-148.88;100.00;-17125.47;4993352;28;20054;-75
2023/09/05 00:05:07;;;;;;;5.75;3.72;;;;;;;-148.88;100.00;-17125.47;4993035;28;20045;-75
2023/09/05 00:07:41;;;;;;;7.00;3.97;;;;;;;-148.88;100.00;-17125.47;4993184;28;20097;-75
2023/09/05 00:10:12;;;;;;;5.72;3.83;;;;;;;-148.88;100.00;-17125.47;4993406;28;20109;-75
2023/09/05 00:12:42;;;;;;;4.75;3.88;;;;;;;-148.88;100.00;-17125.47;4991796;28;20029;-76
2023/09/05 00:15:10;;;;;;;6.60;4.10;;;;;;;-148.88;100.00;-17125.47;4991662;28;20030;-75
2023/09/05 00:17:37;;;;;;;5.97;3.90;;;;;;;-148.88;100.00;-17125.47;4992896;28;20485;-75
2023/09/05 00:20:04;;;;;;;6.40;3.70;;;;;;;-148.88;100.00;-17125.47;4991426;28;20466;-76
2023/09/05 00:22:29;;;;;;;5.80;3.20;;;;;;;-148.88;100.00;-17125.47;4995290;28;20151;-76
2023/09/05 00:24:55;;;;;;;4.32;3.22;;;;;;;-148.88;100.00;-17125.47;4996926;28;20489;-75
2023/09/05 00:27:20;;;;;;;6.60;3.45;;;;;;;-148.88;100.00;-17125.47;4996902;28;20058;-75
2023/09/05 00:29:46;;;;;;;4.65;3.53;;;;;;;-148.88;100.00;-17125.47;4996892;28;20018;-75
2023/09/05 00:32:14;;;;;;;5.35;3.47;;;;;;;-148.88;100.00;-17125.47;4996736;28;20015;-75
2023/09/05 00:34:40;;;;;;;5.30;3.60;;;;;;;-148.88;100.00;-17125.47;4996765;28;20030;-75
2023/09/05 00:37:09;;;;;;;7.28;4.28;;;;;;;-148.88;100.00;-17125.47;4995469;28;20469;-75
2023/09/05 00:39:40;;;;;;;5.60;3.55;;;;;;;-148.88;100.00;-17125.47;4996907;28;20022;-75
2023/09/05 00:42:08;;;;;;;5.13;3.40;;;;;;;-148.88;100.00;-17125.47;4996683;28;20019;-75
2023/09/05 00:44:35;;;;;;;4.32;3.45;;;;;;;-148.88;100.00;-17125.47;4995263;28;20027;-75
2023/09/05 00:47:01;;;;;;;5.68;3.95;;;;;;;-148.88;100.00;-17125.47;4996765;28;20037;-76
2023/09/05 00:49:30;;;;;;;5.07;4.00;;;;;;;-148.88;100.00;-17125.47;4995105;28;20030;-75
2023/09/05 00:51:57;;;;;;;6.88;3.90;;;;;;;-148.88;100.00;-17125.47;4996749;28;20061;-75
2023/09/05 00:54:23;;;;;;;5.38;3.72;;;;;;;-148.88;100.00;-17125.47;4996495;28;20105;-75
2023/09/05 00:56:49;;;;;;;5.68;3.85;;;;;;;-148.88;100.00;-17125.47;4996623;28;20065;-75
2023/09/05 00:59:15;;;;;;;6.68;4.40;;;;;;;-148.88;100.00;-17125.47;4996222;28;20432;-75
2023/09/05 01:01:40;;;;;;;6.13;3.90;;;;;;;-148.88;100.00;-17125.47;4996209;28;20548;-75
2023/09/05 01:04:06;;;;;;;6.55;4.30;;;;;;;-148.88;100.00;-17125.47;4996276;28;20058;-75
2023/09/05 01:07:00;;;;;;;6.75;3.65;;;;;;;-148.88;100.00;-17125.47;4994993;28;20169;-75
2023/09/05 01:09:43;;;;;;;6.65;4.10;;;;;;;-148.88;100.00;-17125.47;4994772;28;20030;-75
2023/09/05 01:12:09;;;;;;;7.57;4.20;;;;;;;-148.88;100.00;-17125.47;4994701;28;20029;-75
2023/09/05 01:14:34;;;;;;;9.05;4.18;;;;;;;-148.88;100.00;-17125.47;4994779;28;20035;-75
2023/09/05 01:17:05;;;;;;;6.53;4.53;;;;;;;-148.88;100.00;-17125.47;4996076;28;20026;-75
2023/09/05 01:19:34;;;;;;;6.38;4.40;;;;;;;-148.88;100.00;-17125.47;4995971;28;20032;-75
2023/09/05 01:22:18;;;;;;;7.35;4.60;;;;;;;-148.88;100.00;-17125.47;4995917;28;20018;-75
2023/09/05 01:24:47;;;;;;;7.75;3.92;;;;;;;-148.88;100.00;-17125.47;4994591;28;20100;-75
2023/09/05 01:27:17;;;;;;;8.00;4.10;;;;;;;-148.88;100.00;-17125.47;4995642;28;20086;-74
2023/09/05 01:29:43;;;;;;;6.15;3.88;;;;;;;-148.88;100.00;-17125.47;4994568;28;20405;-74
2023/09/05 01:32:09;;;;;;;6.32;4.32;;;;;;;-148.88;100.00;-17125.47;4993918;28;20128;-74
2023/09/05 01:34:35;;;;;;;6.78;3.97;;;;;;;-148.88;100.00;-17125.47;4995560;28;20473;-74
2023/09/05 01:37:01;;;;;;;6.50;4.10;;;;;;;-148.88;100.00;-17125.47;4995885;28;20396;-74
2023/09/05 01:39:26;;;;;;;5.30;4.07;;;;;;;-148.88;100.00;-17125.47;4995525;28;20026;-74
2023/09/05 01:41:52;;;;;;;6.57;4.10;;;;;;;-148.88;100.00;-17125.47;4995051;28;20116;-75
2023/09/05 01:44:18;;;;;;;7.78;4.03;;;;;;;-148.88;100.00;-17125.47;4995450;28;20116;-74
2023/09/05 01:46:44;;;;;;;6.13;4.10;;;;;;;-148.88;100.00;-17125.47;4995593;28;20145;-74
2023/09/05 01:49:09;;;;;;;5.85;3.90;;;;;;;-148.88;100.00;-17125.47;4995403;28;20030;-74
2023/09/05 01:51:35;;;;;;;7.55;4.00;;;;;;;-148.88;100.00;-17125.47;4994162;28;20052;-74
2023/09/05 01:54:00;;;;;;;6.10;4.32;;;;;;;-148.88;100.00;-17125.47;4995253;28;20033;-74
2023/09/05 01:56:25;;;;;;;5.85;3.78;;;;;;;-148.88;100.00;-17125.47;4995364;28;20509;-74
2023/09/05 01:58:51;;;;;;;6.10;4.03;;;;;;;-148.88;100.00;-17125.47;4995114;28;20030;-74
2023/09/05 02:01:16;;;;;;;5.25;3.97;;;;;;;-148.88;100.00;-17125.47;4993781;28;20026;-74
2023/09/05 02:03:41;;;;;;;6.18;3.83;;;;;;;-148.88;100.00;-17125.47;4993629;28;20030;-74
2023/09/05 02:06:07;;;;;;;5.72;4.50;;;;;;;-148.88;100.00;-17125.47;4995050;28;20058;-74
2023/09/05 02:08:36;;;;;;;5.75;4.28;;;;;;;-148.88;100.00;-17125.47;4994998;28;20026;-74
2023/09/05 02:11:01;;;;;;;8.80;4.82;;;;;;;-148.88;100.00;-17125.47;4993513;28;20045;-74
2023/09/05 02:13:28;;;;;;;6.32;4.68;;;;;;;-148.88;100.00;-17125.47;4994916;28;20027;-74
2023/09/05 02:15:54;;;;;;;7.28;4.32;;;;;;;-148.88;100.00;-17125.47;4995018;28;20062;-74
2023/09/05 02:18:19;;;;;;;6.88;4.97;;;;;;;-148.88;100.00;-17125.47;4994777;28;20073;-74
2023/09/05 02:20:45;;;;;;;6.57;4.38;;;;;;;-148.88;100.00;-17125.47;4995305;28;20033;-74
2023/09/05 02:23:10;;;;;;;5.88;4.68;;;;;;;-148.88;100.00;-17125.47;4994761;28;20456;-74
2023/09/05 02:25:35;;;;;;;6.35;4.45;;;;;;;-148.88;100.00;-17125.47;4993572;28;20034;-74
2023/09/05 02:28:01;;;;;;;4.90;3.75;;;;;;;-148.88;100.00;-17125.47;4994608;28;20045;-74
2023/09/05 02:36:23;;;;;;;5.47;4.38;;;;;;;-148.88;100.00;-17125.47;4984066;28;20045;-75
2023/09/05 02:38:51;;;;;;;6.78;4.55;;;;;;;-148.88;100.00;-17125.47;4982487;28;20043;-74
2023/09/05 02:41:17;;;;;;;5.95;4.45;;;;;;;-148.88;100.00;-17125.47;4973597;28;20038;-74
2023/09/05 02:43:43;;;;;;;5.35;4.00;;;;;;;-148.88;100.00;-17125.47;4973512;28;20022;-74
2023/09/05 02:46:09;;;;;;;6.10;4.28;;;;;;;-148.88;100.00;-17125.47;4974454;28;20026;-74
2023/09/05 02:48:42;;;;;;;7.63;4.15;;;;;;;-148.88;100.00;-17125.47;4973409;28;20037;-74
2023/09/05 02:51:10;;;;;;;7.15;4.40;;;;;;;-148.88;100.00;-17125.47;4975046;28;20482;-74
2023/09/05 02:53:36;;;;;;;8.13;4.40;;;;;;;-148.88;100.00;-17125.47;4973763;28;20355;-74
2023/09/05 02:56:02;;;;;;;6.78;4.55;;;;;;;-148.88;100.00;-17125.47;4974769;28;20029;-74
2023/09/05 02:58:28;;;;;;;5.90;4.40;;;;;;;-148.88;100.00;-17125.47;4974522;28;20027;-74
2023/09/05 03:01:04;;;;;;;6.28;4.20;;;;;;;-148.88;100.00;-17125.47;4974688;28;20102;-74
2023/09/05 03:03:30;;;;;;;7.82;4.55;;;;;;;-148.88;100.00;-17125.47;4974782;28;20398;-74
2023/09/05 03:05:56;;;;;;;5.28;4.20;;;;;;;-148.88;100.00;-17125.47;4974718;28;20494;-74
2023/09/05 03:08:22;;;;;;;6.72;4.78;;;;;;;-148.88;100.00;-17125.47;4974570;28;20061;-74
2023/09/05 03:10:51;;;;;;;6.07;4.43;;;;;;;-148.88;100.00;-17125.47;4974604;28;20018;-74
2023/09/05 03:13:17;;;;;;;7.13;4.45;;;;;;;-148.88;100.00;-17125.47;4972915;28;20025;-74
2023/09/05 03:15:43;;;;;;;5.88;4.20;;;;;;;-148.88;100.00;-17125.47;4974401;28;20038;-74
2023/09/05 03:18:08;;;;;;;6.40;4.75;;;;;;;-148.88;100.00;-17125.47;4974231;28;20031;-74
2023/09/05 03:20:33;;;;;;;6.05;4.40;;;;;;;-148.88;100.00;-17125.47;4973005;28;20030;-74
2023/09/05 03:22:59;;;;;;;6.70;4.85;;;;;;;-148.88;100.00;-17125.47;4974290;28;20029;-74
2023/09/05 03:25:24;;;;;;;6.63;5.00;;;;;;;-148.88;100.00;-17125.47;4972930;28;20026;-74
2023/09/05 03:27:50;;;;;;;7.72;4.95;;;;;;;-148.88;100.00;-17125.47;4974099;28;20073;-74
2023/09/05 03:30:15;;;;;;;6.18;4.65;;;;;;;-148.88;100.00;-17125.47;4974238;28;20033;-74
2023/09/05 03:32:41;;;;;;;6.90;4.53;;;;;;;-148.88;100.00;-17125.47;4972700;28;20033;-74
2023/09/05 03:35:06;;;;;;;5.80;4.50;;;;;;;-148.88;100.00;-17125.47;4974191;28;20023;-74
2023/09/05 03:37:32;;;;;;;9.00;4.78;;;;;;;-148.88;100.00;-17125.47;4974018;28;20026;-74
2023/09/05 03:39:57;;;;;;;6.43;4.78;;;;;;;-148.88;100.00;-17125.47;4974098;28;20038;-75
2023/09/05 03:42:23;;;;;;;8.00;5.00;;;;;;;-148.88;100.00;-17125.47;4973969;28;20023;-74
2023/09/05 03:44:48;;;;;;;5.82;4.78;;;;;;;-148.88;100.00;-17125.47;4972717;28;20117;-74
2023/09/05 03:47:14;;;;;;;6.65;4.95;;;;;;;-148.88;100.00;-17125.47;4972681;28;20026;-74
2023/09/05 03:49:40;;;;;;;7.57;5.03;;;;;;;-148.88;100.00;-17125.47;4974018;28;20046;-74
2023/09/05 03:52:06;;;;;;;5.30;4.22;;;;;;;-148.88;100.00;-17125.47;4973865;28;20027;-74
2023/09/05 03:54:31;;;;;;;6.85;5.45;;;;;;;-148.88;100.00;-17125.47;4973913;28;20049;-74
2023/09/05 03:56:57;;;;;;;5.93;4.85;;;;;;;-148.88;100.00;-17125.47;4973926;28;20025;-75
2023/09/05 03:59:22;;;;;;;6.32;4.55;;;;;;;-148.88;100.00;-17125.47;4973779;28;20106;-74
2023/09/05 04:01:51;;;;;;;7.68;4.50;;;;;;;-148.88;100.00;-17125.47;4973768;28;20077;-75
2023/09/05 04:04:18;;;;;;;6.25;4.80;;;;;;;-148.88;100.00;-17125.47;4973753;28;20097;-74
2023/09/05 04:06:44;;;;;;;6.57;4.90;;;;;;;-148.88;100.00;-17125.47;4974345;28;20470;-74
2023/09/05 04:09:09;;;;;;;8.07;5.10;;;;;;;-148.88;100.00;-17125.47;4973581;28;20037;-74
2023/09/05 04:11:35;;;;;;;5.97;4.78;;;;;;;-148.88;100.00;-17125.47;4973710;28;20402;-74
2023/09/05 04:14:01;;;;;;;6.13;4.40;;;;;;;-148.88;100.00;-17125.47;4973734;28;20031;-74
2023/09/05 04:16:26;;;;;;;7.35;4.80;;;;;;;-148.88;100.00;-17125.47;4973711;28;20077;-74
2023/09/05 04:18:52;;;;;;;6.28;4.45;;;;;;;-148.88;100.00;-17125.47;4974233;28;20033;-75
2023/09/05 04:21:18;;;;;;;7.72;4.63;;;;;;;-148.88;100.00;-17125.47;4973532;28;20509;-75
2023/09/05 04:23:43;;;;;;;7.10;4.93;;;;;;;-148.88;100.00;-17125.47;4973584;28;20030;-74
2023/09/05 04:26:08;;;;;;;8.38;5.00;;;;;;;-148.88;100.00;-17125.47;4973600;28;20069;-74
2023/09/05 04:28:34;;;;;;;6.15;4.68;;;;;;;-148.88;100.00;-17125.47;4973377;28;20034;-73
2023/09/05 04:31:04;;;;;;;5.22;4.35;;;;;;;-148.88;100.00;-17125.47;4973463;28;20541;-74
2023/09/05 04:33:36;;;;;;;5.82;4.65;;;;;;;-148.88;100.00;-17125.47;4973478;28;20031;-73
2023/09/05 04:36:02;;;;;;;5.85;4.75;;;;;;;-148.88;100.00;-17125.47;4972159;28;20033;-74
2023/09/05 04:38:28;;;;;;;7.75;5.25;;;;;;;-148.88;100.00;-17125.47;4973403;28;20031;-73
2023/09/05 04:40:53;;;;;;;7.60;5.15;;;;;;;-148.88;100.00;-17125.47;4972000;28;20023;-74
2023/09/05 04:43:18;;;;;;;6.90;4.95;;;;;;;-148.88;100.00;-17125.47;4972458;28;20014;-74
2023/09/05 04:45:54;;;;;;;5.22;4.43;;;;;;;-148.88;100.00;-17125.47;4973387;28;20486;-74
2023/09/05 04:48:20;;;;;;;7.13;4.55;;;;;;;-148.88;100.00;-17125.47;4973457;28;20398;-74
2023/09/05 04:50:45;;;;;;;6.57;4.60;;;;;;;-148.88;100.00;-17125.47;4973235;28;20038;-74
2023/09/05 04:53:10;;;;;;;7.07;4.82;;;;;;;-148.88;100.00;-17125.47;4972500;28;20038;-74
2023/09/05 04:55:36;;;;;;;6.57;4.05;;;;;;;-148.88;100.00;-17125.47;4972372;28;20053;-74
2023/09/05 04:58:01;;;;;;;7.20;4.70;;;;;;;-148.88;100.00;-17125.47;4973386;28;20026;-74
2023/09/05 05:00:27;;;;;;;6.25;4.78;;;;;;;-148.88;100.00;-17125.47;4972111;28;20026;-74
2023/09/05 05:02:52;;;;;;;6.50;4.00;;;;;;;-148.88;100.00;-17125.47;4973403;28;20050;-74
2023/09/05 05:05:17;;;;;;;5.97;3.85;;;;;;;-148.88;100.00;-17125.47;4971865;28;20023;-74
2023/09/05 05:07:44;;;;;;;5.85;4.00;;;;;;;-148.88;100.00;-17125.47;4971719;28;20521;-74
2023/09/05 05:10:12;;;;;;;4.68;3.55;;;;;;;-148.88;100.00;-17125.47;4974782;28;20054;-74
2023/09/05 05:12:37;;;;;;;5.50;4.05;;;;;;;-148.88;100.00;-17125.47;4976659;28;20085;-74
2023/09/05 05:15:03;;;;;;;5.82;4.35;;;;;;;-148.88;100.00;-17125.47;4976719;28;20031;-74
2023/09/05 05:17:28;;;;;;;5.72;3.63;;;;;;;-148.88;100.00;-17125.47;4974562;28;20084;-73
2023/09/05 05:19:55;;;;;;;4.93;4.00;;;;;;;-148.88;100.00;-17125.47;4975311;28;20023;-74
2023/09/05 05:22:20;;;;;;;5.45;3.90;;;;;;;-148.88;100.00;-17125.47;4975429;28;20040;-74
2023/09/05 05:24:46;;;;;;;6.57;4.13;;;;;;;-148.88;100.00;-17125.47;4975853;28;20023;-74
2023/09/05 05:27:11;;;;;;;6.55;3.90;;;;;;;-148.88;100.00;-17125.47;4976653;28;20031;-73
2023/09/05 05:29:37;;;;;;;4.55;3.63;;;;;;;-148.88;100.00;-17125.47;4976639;28;20379;-74
2023/09/05 05:32:02;;;;;;;7.35;3.80;;;;;;;-148.88;100.00;-17125.47;4976598;28;20022;-75
2023/09/05 05:34:29;;;;;;;5.88;3.38;;;;;;;-148.88;100.00;-17125.47;4975576;28;20038;-73
2023/09/05 05:36:55;;;;;;;6.18;3.40;;;;;;;-148.88;100.00;-17125.47;4976366;28;20030;-74
2023/09/05 05:39:22;;;;;;;5.00;3.42;;;;;;;-148.88;100.00;-17125.47;4974821;28;20081;-74
2023/09/05 05:41:48;;;;;;;4.80;3.42;;;;;;;-148.88;100.00;-17125.47;4974624;28;20022;-74
2023/09/05 05:44:14;;;;;;;7.50;3.65;;;;;;;-148.88;100.00;-17125.47;4990638;28;20053;-73
2023/09/05 05:46:41;;;;;;;6.78;3.88;;;;;;;-148.88;100.00;-17125.47;4975851;28;20058;-73
2023/09/05 05:49:07;;;;;;;4.97;3.75;;;;;;;-148.88;100.00;-17125.47;4990616;28;20083;-75
2023/09/05 05:51:33;;;;;;;7.22;3.33;;;;;;;-148.88;100.00;-17125.47;4975905;28;20027;-74
2023/09/05 05:53:58;;;;;;;4.85;3.53;;;;;;;-148.88;100.00;-17125.47;4976115;28;20462;-74
2023/09/05 05:56:24;;;;;;;6.18;3.60;;;;;;;-148.88;100.00;-17125.47;4976012;28;20071;-74
2023/09/05 05:58:49;;;;;;;5.47;3.60;;;;;;;-148.88;100.00;-17125.47;4990904;28;20398;-74
2023/09/05 06:01:14;;;;;;;5.72;3.35;;;;;;;-148.88;100.00;-17125.47;4975881;28;20034;-74
2023/09/05 06:03:40;;;;;;;5.35;3.75;;;;;;;-148.88;100.00;-17125.47;4975775;28;20033;-74
2023/09/05 06:06:05;;;;;;;5.15;3.38;;;;;;;-148.88;100.00;-17125.47;4974327;28;20039;-73
2023/09/05 06:08:31;;;;;;;6.35;3.53;;;;;;;-148.88;100.00;-17125.47;4968697;28;20019;-74
2023/09/05 06:10:56;;;;;;;5.15;3.70;;;;;;;-148.88;100.00;-17125.47;4956590;29;20031;-75
2023/09/05 06:13:22;;;;;;;6.10;3.58;;;;;;;-148.88;100.00;-17125.47;4956284;29;20339;-74
2023/09/05 06:15:48;;;;;;;6.60;3.72;;;;;;;-148.88;100.00;-17125.47;4956281;28;20080;-74
2023/09/05 06:18:13;;;;;;;5.50;3.92;;;;;;;-148.88;100.00;-17125.47;4956021;28;20031;-75
2023/09/05 06:20:38;;;;;;;6.97;3.60;;;;;;;-148.88;100.00;-17125.47;4953995;29;20114;-75
2023/09/05 06:23:05;;;;;;;7.72;3.63;;;;;;;-148.88;100.00;-17125.47;4954953;29;20110;-74
2023/09/05 06:25:31;;;;;;;6.55;3.75;;;;;;;-148.88;100.00;-17125.47;4956693;28;20027;-74
2023/09/05 06:27:56;;;;;;;6.88;3.60;;;;;;;-148.88;100.00;-17125.47;4956068;28;20110;-74
2023/09/05 06:30:24;;;;;;;6.15;3.60;;;;;;;-148.88;100.00;-17125.47;4955913;28;20034;-74
2023/09/05 06:32:50;;;;;;;4.40;3.33;;;;;;;-148.88;100.00;-17125.47;4956203;29;20038;-75
2023/09/05 06:35:16;;;;;;;7.40;3.58;;;;;;;-148.88;100.00;-17125.47;4956084;29;20110;-74
2023/09/05 06:37:41;;;;;;;9.02;4.03;;;;;;;-148.88;100.00;-17125.47;4955901;28;20119;-74
2023/09/05 06:40:12;;;;;;;5.47;3.08;;;;;;;-148.88;100.00;-17125.47;4955930;29;20034;-74
2023/09/05 06:42:47;;;;;;;6.65;3.30;;;;;;;-148.88;100.00;-17125.47;4956520;28;20047;-74
2023/09/05 06:45:12;;;;;;;6.88;3.30;;;;;;;-148.88;100.00;-17125.47;4956202;29;20050;-74
2023/09/05 06:47:37;;;;;;;4.68;3.35;;;;;;;-148.88;100.00;-17125.47;4954360;28;20378;-74
2023/09/05 06:50:07;;;;;;;4.93;3.28;;;;;;;-148.88;100.00;-17125.47;4955802;28;20149;-76
2023/09/05 06:52:32;;;;;;;8.60;3.38;;;;;;;-148.88;100.00;-17125.47;4955499;28;20030;-74
2023/09/05 06:54:58;;;;;;;7.07;3.25;;;;;;;-148.88;100.00;-17125.47;4954248;29;20027;-75
2023/09/05 06:57:24;;;;;;;9.07;3.15;;;;;;;-148.88;100.00;-17125.47;4955501;29;20034;-74
2023/09/05 06:59:50;;;;;;;6.68;3.10;;;;;;;-148.88;100.00;-17125.47;4955409;28;20462;-74
2023/09/05 07:02:16;;;;;;;4.28;3.03;;;;;;;-148.88;100.00;-17125.47;4955403;29;20031;-74
2023/09/05 07:04:41;;;;;;;4.15;2.90;;;;;;;-148.88;100.00;-17125.47;4955516;28;20035;-75
2023/09/05 07:07:08;;;;;;;5.05;3.22;;;;;;;-148.88;100.00;-17125.47;4954969;28;20034;-75
2023/09/05 07:09:34;;;;;;;6.25;2.63;;;;;;;-148.88;100.00;-17125.47;4953751;28;20031;-75
2023/09/05 07:12:00;;;;;;;4.50;2.80;;;;;;;-148.88;100.00;-17125.47;4953707;28;20023;-75
2023/09/05 07:14:25;;;;;;;3.92;2.65;;;;;;;-148.88;100.00;-17125.47;4955168;28;20375;-75
2023/09/05 07:16:50;;;;;;;5.97;3.15;;;;;;;-148.88;100.00;-17125.47;4954955;28;20027;-75
2023/09/05 07:19:17;;;;;;;5.18;2.78;;;;;;;-148.88;100.00;-17125.47;4954797;29;20035;-75
2023/09/05 07:21:43;;;;;;;4.10;2.80;;;;;;;-148.88;100.00;-17125.47;4953780;29;20023;-75
2023/09/05 07:24:11;;;;;;;4.93;2.88;;;;;;;-148.88;100.00;-17125.47;4954931;28;20027;-75
2023/09/05 07:26:38;;;;;;;5.93;2.58;;;;;;;-148.88;100.00;-17125.47;4954810;29;20023;-75
2023/09/05 07:29:05;;;;;;;4.60;2.50;;;;;;;-148.88;100.00;-17125.47;4953361;28;20034;-75
2023/09/05 07:31:31;;;;;;;5.38;2.58;;;;;;;-148.88;100.00;-17125.47;4952972;28;20023;-75
2023/09/05 07:34:00;;;;;;;4.05;2.72;;;;;;;-148.88;100.00;-17125.47;4953342;28;20032;-75
2023/09/05 07:36:27;;;;;;;6.82;2.78;;;;;;;-148.88;100.00;-17125.47;4954650;29;20077;-75
2023/09/05 07:38:52;;;;;;;4.22;2.90;;;;;;;-148.88;100.00;-17125.47;4953171;28;20035;-75
2023/09/05 07:41:18;;;;;;;7.60;2.60;;;;;;;-148.88;99.98;-17125.47;4954532;29;20027;-75
2023/09/05 07:43:43;;;;;;;4.22;2.60;;;;;;;-148.88;100.00;-17125.47;4954597;29;20019;-75
2023/09/05 07:46:11;;;;;;;5.22;2.70;;;;;;;-148.88;100.00;-17125.47;4954590;28;20455;-75
2023/09/05 07:48:37;;;;;;;5.63;2.72;;;;;;;-148.88;99.87;-17125.47;4953234;28;20154;-75
2023/09/05 07:51:05;;;;;;;8.85;3.58;;;;;;;-148.88;100.00;-17125.47;4954497;28;20030;-75
2023/09/05 07:53:35;;;;;;;5.35;2.47;;;;;;;-148.88;100.00;-17125.47;4953109;29;20102;-75
2023/09/05 07:56:02;;;;;;;4.38;2.20;;;;;;;-148.88;98.53;-17125.47;4954581;29;20036;-75
2023/09/05 07:58:28;;;;;;;4.65;2.58;;;;;;;-148.88;97.66;-17125.47;4955033;29;20030;-75
2023/09/05 08:00:54;;;;;;;3.78;2.33;;;;;;;-148.88;99.45;-17125.47;4953119;28;20019;-75
2023/09/05 08:03:25;;;;;;;4.88;2.30;;;;;;;-148.88;96.35;-17125.47;4954366;28;20387;-75
2023/09/05 08:05:51;;;;;;;5.68;2.60;;;;;;;-148.88;95.67;-17125.47;4954396;29;20027;-75
2023/09/05 08:08:17;;;;;;;4.68;2.45;;;;;;;-148.88;97.42;-17125.47;4953224;28;20031;-75
2023/09/05 08:10:43;;;;;;;3.95;2.22;;;;;;;-148.88;100.00;-17125.47;4952998;29;20026;-75
2023/09/05 08:13:10;;;;;;;5.32;2.30;;;;;;;-148.88;94.28;-17125.47;4954180;28;20047;-75
2023/09/05 08:15:36;;;;;;;5.30;2.22;;;;;;;-148.88;92.41;-17125.47;4954661;28;20028;-75
2023/09/05 08:18:03;;;;;;;5.80;2.40;;;;;;;-148.88;93.48;-17125.47;4952941;28;20028;-75
2023/09/05 08:20:29;;;;;;;4.30;2.33;;;;;;;-148.88;91.87;-17125.47;4954135;29;20023;-75
2023/09/05 08:22:54;;;;;;;3.70;2.53;;;;;;;-148.88;91.83;-17125.47;4954474;29;20049;-75
2023/09/05 08:25:23;;;;;;;4.65;2.70;;;;;;;-148.88;91.07;-17125.47;4953281;28;20398;-75
2023/09/05 08:27:53;;;;;;;4.70;2.30;;;;;;;-148.88;90.61;-17125.47;4953127;28;20402;-75
2023/09/05 08:30:19;;;;;;;3.20;2.22;;;;;;;-148.88;91.07;-17125.47;4954348;28;20082;-75
2023/09/05 08:32:44;;;;;;;4.00;2.45;;;;;;;-148.88;91.29;-17125.47;4954514;29;20530;-75
2023/09/05 08:35:09;;;;;;;3.25;2.45;;;;;;;-148.88;90.55;-17125.47;4954679;28;20050;-75
2023/09/05 08:37:36;;;;;;;3.47;2.20;;;;;;;-148.88;90.22;-17125.47;4953888;28;20198;-75
2023/09/05 08:40:03;;;;;;;3.42;2.25;;;;;;;-148.88;87.79;-17125.47;4954427;29;20035;-75
2023/09/05 08:42:31;;;;;;;4.40;2.40;;;;;;;-148.88;86.62;-17125.47;4953347;28;20110;-75
2023/09/05 08:44:59;;;;;;;4.65;2.13;;;;;;;-148.88;91.74;-17125.47;4957822;28;20039;-75
2023/09/05 08:47:31;;;;;;;6.75;2.53;;;;;;;-148.88;87.70;-17125.47;4956354;28;20110;-75
2023/09/05 08:49:59;;;;;;;5.43;2.58;;;;;;;-148.88;89.56;-17125.47;4957913;29;20498;-75
2023/09/05 08:52:37;;;;;;;3.95;2.42;;;;;;;-148.88;85.33;-17125.47;4957637;28;20099;-75
2023/09/05 08:55:02;;;;;;;4.68;2.53;;;;;;;-148.88;83.89;-17125.47;4957505;29;20063;-75
2023/09/05 08:57:29;;;;;;;4.57;2.33;;;;;;;-148.88;83.78;-17125.47;4957479;28;20083;-75
2023/09/05 08:59:55;;;;;;;4.70;2.25;;;;;;;-148.88;84.85;-17125.47;4957605;28;20027;-75
2023/09/05 09:02:20;;;;;;;4.20;2.15;;;;;;;-148.88;83.81;-17125.47;4957552;28;20094;-76
2023/09/05 09:04:58;;;;;;;4.93;2.28;;;;;;;-148.88;82.32;-17125.47;4957651;29;20391;-76
2023/09/05 09:07:27;;;;;;;5.60;2.17;;;;;;;-148.88;79.83;-17125.47;4957408;29;20494;-75
2023/09/05 09:09:53;;;;;;;7.45;2.25;;;;;;;-148.88;85.22;-17125.47;4957596;28;20031;-75
2023/09/05 09:12:30;;;;;;;5.15;2.30;;;;;;;-148.88;81.76;-17125.47;4955989;28;20034;-75
2023/09/05 09:15:09;;;;;;;2.97;1.95;;;;;;;-148.88;76.13;-17125.47;4957241;29;20046;-75
2023/09/05 09:17:35;;;;;;;4.93;2.10;;;;;;;-148.88;75.58;-17125.47;4957675;28;20394;-75
2023/09/05 09:20:03;;;;;;;3.67;1.90;;;;;;;-148.88;75.76;-17125.47;4957098;28;20031;-75
2023/09/05 09:22:29;;;;;;;4.72;2.33;;;;;;;-148.88;79.53;-17125.47;4955846;28;20101;-75
2023/09/05 09:24:55;;;;;;;3.38;1.70;;;;;;;-148.88;73.99;-17125.47;4955812;28;20072;-75
2023/09/05 09:27:22;;;;;;;3.53;2.20;;;;;;;-148.88;75.13;-17125.47;4956922;29;20030;-75
2023/09/05 09:29:56;;;;;;;3.92;2.03;;;;;;;-148.88;77.14;-17125.47;4957038;28;20027;-76
2023/09/05 09:32:24;;;;;;;4.72;2.10;;;;;;;-148.88;75.30;-17125.47;4956844;28;20035;-75
2023/09/05 09:34:50;;;;;;;3.30;2.10;;;;;;;-148.88;73.70;-17125.47;4957175;29;20441;-75
2023/09/05 09:37:26;;;;;;;3.67;1.90;;;;;;;-148.88;71.98;-17125.47;4955575;29;20586;-75
2023/09/05 09:39:59;;;;;;;3.92;2.08;;;;;;;-148.88;72.75;-17125.47;4957131;28;20035;-75
2023/09/05 09:42:24;;;;;;;3.65;1.77;;;;;;;-148.88;72.55;-17125.47;4957095;29;20386;-75
2023/09/05 09:44:50;;;;;;;3.78;1.90;;;;;;;-148.88;69.66;-17125.47;4956812;29;20485;-75
2023/09/05 09:47:17;;;;;;;4.03;2.08;;;;;;;-148.88;70.84;-17125.47;4955450;28;20027;-75
2023/09/05 09:49:47;;;;;;;5.75;1.90;;;;;;;-148.88;68.88;-17125.47;4957135;28;20106;-75
2023/09/05 09:52:15;;;;;;;4.00;1.85;;;;;;;-148.88;69.16;-17125.47;4956602;28;20067;-75
2023/09/05 09:54:44;;;;;;;2.55;1.70;;;;;;;-148.88;67.54;-17125.47;4956229;28;20035;-75
2023/09/05 09:57:13;;;;;;;2.45;1.90;;;;;;;-148.88;70.23;-17125.47;4956479;29;20027;-75
2023/09/05 09:59:45;;;;;;;3.38;2.08;;;;;;;-148.88;65.44;-17125.47;4956532;28;20045;-75
2023/09/05 10:02:15;;;;;;;5.53;2.00;;;;;;;-148.88;69.76;-17125.47;4956376;29;20074;-75
2023/09/05 10:04:41;;;;;;;4.07;1.90;;;;;;;-148.88;66.57;-17125.47;4955034;28;20051;-75
2023/09/05 10:07:08;;;;;;;3.10;2.00;;;;;;;-148.88;65.43;-17125.47;4956255;28;20118;-75
2023/09/05 10:09:37;;;;;;;3.28;1.77;;;;;;;-148.88;63.93;-17125.47;4956285;28;20027;-75
2023/09/05 10:12:04;;;;;;;3.63;2.10;;;;;;;-148.88;64.51;-17125.47;4956163;28;20019;-75
2023/09/05 10:14:31;;;;;;;4.88;2.03;;;;;;;-148.88;65.96;-17125.47;4956130;28;20035;-75
2023/09/05 10:16:58;;;;;;;4.00;2.20;;;;;;;-148.88;62.67;-17125.47;4956160;29;20094;-76
2023/09/05 10:19:25;;;;;;;4.13;1.90;;;;;;;-148.88;62.86;-17125.47;4956054;28;20066;-76
2023/09/05 10:21:53;;;;;;;2.53;2.17;;;;;;;-148.88;61.14;-17125.47;4954877;28;20023;-75
2023/09/05 10:24:19;;;;;;;3.28;1.70;;;;;;;-148.88;57.86;-17125.47;4956121;29;20105;-75
2023/09/05 10:26:45;;;;;;;3.92;2.03;;;;;;;-148.88;63.00;-17125.47;4956193;28;20114;-76
2023/09/05 10:29:33;;;;;;;4.38;1.70;;;;;;;-148.88;60.74;-17125.47;4955869;29;20110;-75
2023/09/05 10:31:59;;;;;;;3.17;1.75;;;;;;;-148.88;57.91;-17125.47;4955863;28;20422;-75
2023/09/05 10:34:50;;;;;;;2.97;1.85;;;;;;;-148.88;58.51;-17125.47;4955928;29;20089;-75
2023/09/05 10:37:21;;;;;;;3.20;1.85;;;;;;;-148.88;60.33;-17125.47;4954306;29;20027;-75
2023/09/05 10:40:00;;;;;;;2.65;1.80;;;;;;;-148.88;62.46;-17125.47;4954440;28;20407;-76
2023/09/05 10:42:31;;;;;;;3.95;1.70;;;;;;;-148.88;57.98;-17125.47;4955695;28;20042;-76
2023/09/05 10:44:59;;;;;;;3.88;1.60;;;;;;;-148.88;56.27;-17125.47;4955710;28;20403;-75
2023/09/05 10:47:30;;;;;;;2.38;1.58;;;;;;;-148.88;53.58;-17125.47;4955575;28;20023;-75
2023/09/05 10:50:00;;;;;;;4.47;1.50;;;;;;;-148.88;57.34;-17125.47;4955543;28;20030;-75
2023/09/05 10:52:29;;;;;;;3.42;1.77;;;;;;;-148.88;53.78;-17125.47;4955764;28;20038;-76
2023/09/05 10:55:18;;;;;;;4.30;1.90;;;;;;;-148.88;54.88;-17125.47;4954262;29;20030;-75
2023/09/05 10:57:48;;;;;;;4.72;1.63;;;;;;;-148.88;53.27;-17125.47;4955621;29;20482;-75
2023/09/05 11:00:20;;;;;;;2.17;1.40;;;;;;;-148.88;53.76;-17125.47;4954260;29;20038;-76
2023/09/05 11:02:47;;;;;;;4.32;1.75;;;;;;;-148.88;49.61;-17125.47;4954091;29;20517;-75
2023/09/05 11:05:19;;;;;;;2.60;1.73;;;;;;;-148.88;49.89;-17125.47;4954598;28;20036;-76
2023/09/05 11:07:46;;;;;;;5.68;2.15;;;;;;;-148.88;50.74;-17125.47;4955445;28;20432;-76
2023/09/05 11:10:32;;;;;;;4.85;2.10;;;;;;;-148.88;51.10;-17125.47;4955185;28;20023;-75